createdAt,value
2022-10-06T00:00:26.520Z,70.83
2022-10-06T00:01:03.265Z,70.93
2022-10-06T00:01:35.465Z,70.86
2022-10-06T00:02:10.277Z,71.09
2022-10-06T00:02:42.613Z,70.81
2022-10-06T00:03:15.948Z,70.97
2022-10-06T00:03:50.696Z,70.49
2022-10-06T00:04:22.792Z,70.65
2022-10-06T00:04:54.894Z,70.76
2022-10-06T00:05:29.823Z,71.05
2022-10-06T00:06:03.441Z,70.96
2022-10-06T00:06:35.729Z,70.81
2022-10-06T00:07:08.137Z,70.88
2022-10-06T00:07:42.792Z,71.05
2022-10-06T00:08:15.051Z,70.88
2022-10-06T00:08:50.359Z,70.96
2022-10-06T00:09:22.468Z,70.73
2022-10-06T00:09:54.542Z,70.89
2022-10-06T00:10:31.858Z,70.84
2022-10-06T00:11:04.838Z,70.70
2022-10-06T00:11:37.811Z,71.10
2022-10-06T00:12:13.389Z,70.78
2022-10-06T00:12:48.263Z,70.82
2022-10-06T00:13:20.462Z,71.01
2022-10-06T00:13:55.189Z,70.79
2022-10-06T00:14:27.661Z,71.37
2022-10-06T00:14:59.735Z,70.83
2022-10-06T00:15:35.258Z,70.87
2022-10-06T00:16:10.766Z,70.89
2022-10-06T00:16:42.999Z,71.08
2022-10-06T00:17:17.861Z,70.90
2022-10-06T00:17:50.282Z,71.12
2022-10-06T00:18:22.478Z,70.88
2022-10-06T00:18:58.381Z,71.12
2022-10-06T00:19:30.522Z,71.37
2022-10-06T00:20:02.769Z,70.91
2022-10-06T00:20:37.466Z,71.21
2022-10-06T00:21:09.688Z,71.13
2022-10-06T00:21:41.942Z,71.34
2022-10-06T00:22:16.635Z,71.11
2022-10-06T00:22:50.169Z,71.40
2022-10-06T00:23:22.307Z,71.16
2022-10-06T00:23:57.025Z,71.43
2022-10-06T00:24:29.113Z,71.06
2022-10-06T00:25:01.547Z,71.44
2022-10-06T00:25:39.119Z,71.40
2022-10-06T00:26:14.712Z,71.18
2022-10-06T00:26:47.438Z,71.19
2022-10-06T00:27:22.258Z,71.57
2022-10-06T00:27:54.853Z,71.50
2022-10-06T00:28:28.083Z,71.39
2022-10-06T00:29:02.974Z,71.50
2022-10-06T00:29:35.071Z,71.17
2022-10-06T00:30:10.823Z,71.58
2022-10-06T00:30:46.763Z,71.53
2022-10-06T00:31:19.861Z,71.44
2022-10-06T00:31:52.241Z,71.87
2022-10-06T00:32:27.064Z,71.40
2022-10-06T00:33:01.343Z,71.57
2022-10-06T00:33:33.933Z,71.76
2022-10-06T00:34:08.815Z,71.81
2022-10-06T00:34:41.017Z,71.96
2022-10-06T00:35:13.118Z,71.83
2022-10-06T00:35:48.209Z,71.85
2022-10-06T00:36:20.696Z,71.88
2022-10-06T00:36:52.766Z,72.26
2022-10-06T00:37:28.271Z,71.78
2022-10-06T00:38:01.266Z,71.64
2022-10-06T00:38:33.657Z,72.21
2022-10-06T00:39:08.435Z,72.13
2022-10-06T00:39:40.560Z,72.14
2022-10-06T00:40:12.844Z,71.90
2022-10-06T00:40:53.028Z,72.30
2022-10-06T00:41:25.088Z,72.25
2022-10-06T00:41:57.173Z,72.11
2022-10-06T00:42:34.656Z,72.37
2022-10-06T00:43:07.183Z,72.24
2022-10-06T00:43:49.166Z,71.98
2022-10-06T00:44:23.832Z,72.23
2022-10-06T00:45:00.460Z,71.97
2022-10-06T00:45:37.903Z,72.13
2022-10-06T00:46:15.660Z,72.02
2022-10-06T00:46:53.692Z,72.01
2022-10-06T00:47:31.159Z,71.88
2022-10-06T00:48:07.923Z,72.29
2022-10-06T00:48:43.539Z,72.10
2022-10-06T00:49:20.907Z,71.79
2022-10-06T00:49:58.178Z,71.94
2022-10-06T00:50:31.349Z,72.27
2022-10-06T00:51:03.841Z,72.35
2022-10-06T00:51:41.514Z,72.19
2022-10-06T00:52:18.920Z,72.12
2022-10-06T00:52:51.051Z,72.15
2022-10-06T00:53:27.191Z,72.33
2022-10-06T00:53:59.389Z,71.92
2022-10-06T00:54:32.591Z,72.19
2022-10-06T00:55:09.484Z,72.17
2022-10-06T00:55:41.894Z,71.82
2022-10-06T00:56:16.626Z,72.21
2022-10-06T00:56:51.436Z,71.91
2022-10-06T00:57:23.730Z,71.97
2022-10-06T00:57:56.220Z,71.87
2022-10-06T00:58:28.554Z,72.03
2022-10-06T00:59:03.358Z,71.90
2022-10-06T00:59:37.641Z,72.25
2022-10-06T01:00:11.023Z,72.17
2022-10-06T01:00:47.645Z,72.12
2022-10-06T01:01:19.966Z,71.99
2022-10-06T01:01:57.222Z,72.10
2022-10-06T01:02:40.223Z,72.07
2022-10-06T01:03:17.570Z,72.36
2022-10-06T01:03:57.694Z,72.13
2022-10-06T01:04:33.180Z,72.25
2022-10-06T01:05:09.229Z,72.46
2022-10-06T01:05:47.781Z,72.17
2022-10-06T01:06:19.910Z,72.57
2022-10-06T01:06:54.541Z,72.23
2022-10-06T01:07:31.252Z,72.60
2022-10-06T01:08:03.810Z,72.44
2022-10-06T01:08:37.165Z,72.18
2022-10-06T01:09:12.930Z,72.47
2022-10-06T01:09:45.568Z,72.45
2022-10-06T01:10:18.614Z,72.69
2022-10-06T01:10:53.483Z,72.54
2022-10-06T01:11:29.219Z,72.74
2022-10-06T01:12:04.308Z,72.75
2022-10-06T01:12:39.395Z,72.36
2022-10-06T01:13:13.417Z,72.77
2022-10-06T01:13:46.586Z,72.43
2022-10-06T01:14:22.708Z,72.75
2022-10-06T01:14:56.455Z,72.33
2022-10-06T01:15:29.474Z,72.62
2022-10-06T01:16:14.707Z,72.57
2022-10-06T01:16:52.175Z,72.91
2022-10-06T01:17:30.188Z,72.59
2022-10-06T01:18:08.560Z,72.72
2022-10-06T01:18:42.940Z,72.90
2022-10-06T01:19:27.408Z,72.79
2022-10-06T01:20:04.487Z,72.80
2022-10-06T01:20:37.126Z,72.80
2022-10-06T01:21:15.093Z,72.51
2022-10-06T01:21:52.289Z,72.97
2022-10-06T01:22:29.073Z,72.63
2022-10-06T01:23:03.105Z,72.65
2022-10-06T01:23:39.014Z,72.89
2022-10-06T01:24:11.450Z,72.80
2022-10-06T01:24:45.608Z,73.12
2022-10-06T01:25:22.258Z,72.72
2022-10-06T01:25:55.389Z,72.90
2022-10-06T01:26:29.180Z,72.54
2022-10-06T01:27:05.739Z,72.66
2022-10-06T01:27:41.783Z,72.67
2022-10-06T01:28:15.676Z,72.99
2022-10-06T01:28:51.053Z,72.63
2022-10-06T01:29:25.335Z,72.87
2022-10-06T01:29:59.133Z,72.49
2022-10-06T01:30:39.147Z,72.90
2022-10-06T01:31:11.599Z,72.74
2022-10-06T01:31:44.134Z,73.04
2022-10-06T01:32:18.828Z,72.99
2022-10-06T01:32:51.239Z,72.87
2022-10-06T01:33:23.852Z,72.84
2022-10-06T01:33:59.686Z,72.91
2022-10-06T01:34:32.004Z,72.97
2022-10-06T01:35:06.075Z,72.85
2022-10-06T01:35:41.222Z,72.67
2022-10-06T01:36:13.453Z,72.79
2022-10-06T01:36:46.744Z,73.01
2022-10-06T01:37:21.804Z,73.02
2022-10-06T01:37:58.944Z,72.70
2022-10-06T01:38:32.635Z,73.02
2022-10-06T01:39:10.841Z,72.94
2022-10-06T01:39:44.027Z,73.20
2022-10-06T01:40:16.330Z,73.22
2022-10-06T01:40:51.202Z,72.92
2022-10-06T01:41:27.806Z,73.22
2022-10-06T01:42:00.188Z,72.89
2022-10-06T01:42:33.712Z,73.22
2022-10-06T01:43:09.996Z,73.27
2022-10-06T01:43:42.165Z,73.39
2022-10-06T01:44:14.266Z,73.35
2022-10-06T01:44:48.965Z,73.38
2022-10-06T01:45:21.183Z,73.09
2022-10-06T01:45:55.208Z,73.19
2022-10-06T01:46:31.830Z,72.88
2022-10-06T01:47:05.451Z,73.25
2022-10-06T01:47:37.772Z,72.90
2022-10-06T01:48:09.975Z,73.26
2022-10-06T01:48:44.731Z,73.17
2022-10-06T01:49:19.199Z,73.21
2022-10-06T01:49:51.355Z,73.10
2022-10-06T01:50:26.346Z,73.11
2022-10-06T01:50:58.442Z,73.02
2022-10-06T01:51:30.605Z,73.07
2022-10-06T01:52:04.886Z,73.01
2022-10-06T01:52:39.934Z,73.21
2022-10-06T01:53:16.743Z,72.99
2022-10-06T01:53:48.871Z,73.31
2022-10-06T01:54:20.996Z,72.99
2022-10-06T01:54:56.771Z,72.95
2022-10-06T01:55:29.458Z,73.21
2022-10-06T01:56:03.600Z,73.51
2022-10-06T01:56:38.609Z,73.13
2022-10-06T01:57:10.904Z,73.03
2022-10-06T01:57:44.238Z,73.08
2022-10-06T01:58:20.086Z,73.14
2022-10-06T01:58:52.218Z,73.17
2022-10-06T01:59:24.814Z,73.16
2022-10-06T01:59:59.808Z,73.39
2022-10-06T02:00:32.064Z,73.06
2022-10-06T02:01:07.256Z,73.03
2022-10-06T02:01:43.611Z,73.41
2022-10-06T02:02:15.791Z,73.04
2022-10-06T02:02:47.972Z,73.15
2022-10-06T02:03:22.624Z,73.47
2022-10-06T02:03:54.831Z,73.06
2022-10-06T02:04:28.214Z,73.62
2022-10-06T02:05:02.937Z,73.47
2022-10-06T02:05:35.931Z,73.40
2022-10-06T02:06:09.310Z,73.62
2022-10-06T02:06:44.083Z,73.49
2022-10-06T02:07:16.179Z,73.68
2022-10-06T02:07:50.903Z,73.34
2022-10-06T02:08:26.023Z,73.45
2022-10-06T02:09:04.205Z,73.67
2022-10-06T02:09:36.371Z,73.27
2022-10-06T02:10:10.291Z,73.42
2022-10-06T02:10:45.091Z,73.24
2022-10-06T02:11:27.598Z,73.59
2022-10-06T02:12:02.514Z,73.37
2022-10-06T02:12:35.286Z,73.31
2022-10-06T02:13:07.608Z,73.84
2022-10-06T02:13:44.515Z,73.89
2022-10-06T02:14:18.176Z,73.69
2022-10-06T02:14:50.278Z,73.73
2022-10-06T02:15:25.305Z,73.96
2022-10-06T02:15:57.855Z,73.98
2022-10-06T02:16:30.389Z,73.58
2022-10-06T02:17:05.122Z,73.48
2022-10-06T02:17:38.572Z,74.03
2022-10-06T02:18:10.958Z,73.90
2022-10-06T02:18:45.670Z,73.96
2022-10-06T02:19:17.858Z,74.09
2022-10-06T02:19:49.973Z,73.75
2022-10-06T02:20:24.846Z,73.70
2022-10-06T02:20:57.095Z,74.03
2022-10-06T02:21:29.166Z,74.07
2022-10-06T02:22:04.004Z,73.51
2022-10-06T02:22:38.160Z,73.68
2022-10-06T02:23:10.461Z,73.56
2022-10-06T02:23:48.218Z,74.21
2022-10-06T02:24:20.396Z,73.89
2022-10-06T02:24:52.653Z,73.69
2022-10-06T02:25:27.610Z,73.69
2022-10-06T02:26:00.342Z,74.07
2022-10-06T02:26:32.632Z,73.85
2022-10-06T02:27:08.208Z,74.06
2022-10-06T02:27:40.974Z,73.87
2022-10-06T02:28:16.946Z,74.48
2022-10-06T02:28:52.588Z,74.17
2022-10-06T02:29:28.652Z,74.45
2022-10-06T02:30:01.859Z,74.16
2022-10-06T02:30:37.370Z,74.39
2022-10-06T02:31:10.214Z,74.59
2022-10-06T02:31:44.910Z,74.42
2022-10-06T02:32:19.847Z,74.40
2022-10-06T02:32:51.987Z,74.71
2022-10-06T02:33:25.049Z,74.24
2022-10-06T02:33:59.984Z,74.41
2022-10-06T02:34:32.085Z,74.47
2022-10-06T02:35:06.719Z,74.30
2022-10-06T02:35:43.002Z,74.48
2022-10-06T02:36:16.824Z,74.89
2022-10-06T02:36:49.226Z,74.54
2022-10-06T02:37:21.849Z,74.43
2022-10-06T02:37:56.652Z,74.90
2022-10-06T02:38:29.470Z,74.85
2022-10-06T02:39:05.159Z,74.51
2022-10-06T02:39:39.859Z,74.80
2022-10-06T02:40:13.915Z,74.48
2022-10-06T02:40:46.004Z,74.94
2022-10-06T02:41:20.704Z,74.71
2022-10-06T02:41:52.803Z,74.98
2022-10-06T02:42:25.304Z,74.79
2022-10-06T02:43:00.272Z,74.66
2022-10-06T02:43:32.493Z,74.68
2022-10-06T02:44:06.113Z,74.58
2022-10-06T02:44:40.841Z,74.85
2022-10-06T02:45:12.963Z,74.97
2022-10-06T02:45:52.503Z,74.74
2022-10-06T02:46:27.782Z,74.83
2022-10-06T02:47:01.107Z,74.73
2022-10-06T02:47:33.384Z,74.97
2022-10-06T02:48:08.238Z,75.18
2022-10-06T02:48:40.821Z,74.81
2022-10-06T02:49:13.828Z,75.33
2022-10-06T02:49:48.662Z,74.90
2022-10-06T02:50:21.718Z,75.01
2022-10-06T02:50:55.750Z,74.88
2022-10-06T02:51:33.225Z,74.89
2022-10-06T02:52:06.326Z,75.19
2022-10-06T02:52:41.177Z,75.05
2022-10-06T02:53:15.911Z,75.13
2022-10-06T02:53:49.505Z,75.07
2022-10-06T02:54:25.410Z,74.91
2022-10-06T02:55:00.057Z,75.01
2022-10-06T02:55:32.138Z,75.09
2022-10-06T02:56:07.400Z,75.35
2022-10-06T02:56:42.248Z,75.11
2022-10-06T02:57:15.361Z,75.56
2022-10-06T02:57:47.445Z,75.54
2022-10-06T02:58:22.518Z,75.40
2022-10-06T02:58:54.692Z,75.17
2022-10-06T02:59:36.647Z,75.53
2022-10-06T03:00:14.970Z,75.49
2022-10-06T03:00:47.072Z,75.78
2022-10-06T03:01:21.917Z,75.74
2022-10-06T03:01:58.411Z,75.36
2022-10-06T03:02:31.342Z,75.53
2022-10-06T03:03:03.862Z,75.62
2022-10-06T03:03:39.044Z,75.70
2022-10-06T03:04:12.180Z,75.42
2022-10-06T03:04:46.394Z,75.64
2022-10-06T03:05:21.067Z,75.37
2022-10-06T03:05:59.700Z,75.72
2022-10-06T03:06:34.601Z,75.56
2022-10-06T03:07:32.917Z,76.00
2022-10-06T03:08:05.161Z,75.88
2022-10-06T03:08:39.857Z,76.06
2022-10-06T03:09:12.406Z,76.06
2022-10-06T03:09:50.378Z,75.93
2022-10-06T03:10:25.066Z,76.16
2022-10-06T03:11:01.594Z,75.97
2022-10-06T03:11:36.359Z,75.78
2022-10-06T03:12:12.503Z,75.95
2022-10-06T03:12:47.973Z,76.29
2022-10-06T03:13:20.086Z,76.41
2022-10-06T03:13:52.658Z,75.81
2022-10-06T03:14:27.435Z,76.28
2022-10-06T03:14:59.593Z,75.92
2022-10-06T03:15:31.814Z,76.20
2022-10-06T03:16:06.611Z,76.38
2022-10-06T03:16:40.624Z,76.11
2022-10-06T03:17:18.450Z,76.17
2022-10-06T03:17:58.152Z,76.03
2022-10-06T03:18:31.900Z,76.09
2022-10-06T03:19:04.780Z,76.08
2022-10-06T03:19:40.233Z,76.29
2022-10-06T03:20:14.628Z,76.30
2022-10-06T03:20:48.754Z,76.09
2022-10-06T03:21:26.073Z,76.40
2022-10-06T03:21:58.161Z,76.28
2022-10-06T03:22:40.875Z,76.44
2022-10-06T03:23:13.780Z,76.32
2022-10-06T03:23:47.874Z,75.97
2022-10-06T03:24:22.559Z,75.94
2022-10-06T03:25:01.802Z,76.15
2022-10-06T03:25:33.901Z,76.20
2022-10-06T03:26:09.669Z,76.05
2022-10-06T03:26:43.344Z,76.35
2022-10-06T03:27:15.993Z,76.45
2022-10-06T03:27:50.684Z,76.11
2022-10-06T03:28:22.881Z,76.11
2022-10-06T03:28:55.697Z,76.49
2022-10-06T03:29:29.247Z,76.12
2022-10-06T03:30:05.078Z,76.34
2022-10-06T03:30:38.741Z,76.19
2022-10-06T03:31:11.784Z,76.19
2022-10-06T03:31:46.927Z,76.58
2022-10-06T03:32:19.338Z,76.17
2022-10-06T03:32:53.089Z,76.58
2022-10-06T03:33:27.784Z,76.55
2022-10-06T03:34:00.025Z,76.25
2022-10-06T03:34:33.838Z,76.34
2022-10-06T03:35:12.136Z,76.65
2022-10-06T03:35:44.789Z,76.67
2022-10-06T03:36:21.803Z,76.35
2022-10-06T03:36:53.960Z,76.60
2022-10-06T03:37:28.985Z,76.44
2022-10-06T03:38:03.757Z,76.68
2022-10-06T03:38:36.561Z,76.60
2022-10-06T03:39:09.124Z,76.76
2022-10-06T03:39:44.159Z,76.58
2022-10-06T03:40:19.569Z,76.38
2022-10-06T03:40:51.834Z,76.83
2022-10-06T03:41:28.330Z,76.85
2022-10-06T03:42:00.416Z,76.66
2022-10-06T03:42:32.555Z,76.51
2022-10-06T03:43:07.256Z,76.88
2022-10-06T03:43:40.714Z,76.61
2022-10-06T03:44:15.573Z,76.58
2022-10-06T03:44:48.703Z,77.04
2022-10-06T03:45:20.803Z,76.66
2022-10-06T03:46:01.004Z,77.07
2022-10-06T03:46:36.186Z,76.98
2022-10-06T03:47:17.213Z,76.62
2022-10-06T03:47:49.570Z,76.78
2022-10-06T03:48:21.653Z,77.14
2022-10-06T03:48:55.277Z,76.74
2022-10-06T03:49:29.966Z,76.61
2022-10-06T03:50:02.136Z,77.08
2022-10-06T03:50:35.009Z,77.11
2022-10-06T03:51:10.691Z,77.16
2022-10-06T03:51:45.877Z,77.24
2022-10-06T03:52:26.102Z,76.97
2022-10-06T03:52:59.035Z,77.05
2022-10-06T03:53:36.270Z,77.27
2022-10-06T03:54:10.938Z,77.26
2022-10-06T03:54:44.016Z,77.29
2022-10-06T03:55:18.914Z,76.93
2022-10-06T03:55:59.766Z,77.32
2022-10-06T03:56:33.967Z,77.28
2022-10-06T03:57:08.702Z,77.32
2022-10-06T03:57:41.888Z,77.56
2022-10-06T03:58:17.036Z,77.31
2022-10-06T03:58:53.950Z,77.75
2022-10-06T03:59:29.280Z,77.51
2022-10-06T04:00:03.737Z,77.63
2022-10-06T04:00:47.119Z,77.44
2022-10-06T04:01:25.911Z,77.53
2022-10-06T04:01:58.774Z,77.37
2022-10-06T04:02:41.976Z,77.43
2022-10-06T04:03:14.435Z,77.74
2022-10-06T04:03:46.667Z,77.79
2022-10-06T04:04:21.380Z,77.34
2022-10-06T04:04:57.330Z,77.26
2022-10-06T04:05:30.071Z,77.38
2022-10-06T04:06:06.593Z,77.82
2022-10-06T04:06:40.704Z,77.47
2022-10-06T04:07:14.926Z,77.64
2022-10-06T04:07:49.634Z,77.62
2022-10-06T04:08:21.863Z,77.38
2022-10-06T04:08:54.608Z,77.96
2022-10-06T04:09:26.742Z,77.64
2022-10-06T04:10:01.401Z,77.37
2022-10-06T04:10:33.625Z,77.56
2022-10-06T04:11:10.733Z,77.42
2022-10-06T04:11:46.574Z,77.94
2022-10-06T04:12:18.716Z,77.86
2022-10-06T04:12:50.808Z,77.50
2022-10-06T04:13:23.540Z,77.50
2022-10-06T04:14:00.670Z,77.69
2022-10-06T04:14:33.723Z,77.58
2022-10-06T04:15:07.098Z,77.52
2022-10-06T04:15:41.906Z,77.70
2022-10-06T04:16:16.088Z,77.55
2022-10-06T04:16:52.879Z,77.97
2022-10-06T04:17:33.088Z,77.57
2022-10-06T04:18:05.172Z,77.93
2022-10-06T04:18:40.006Z,77.54
2022-10-06T04:19:13.635Z,77.57
2022-10-06T04:19:49.361Z,77.68
2022-10-06T04:20:24.032Z,77.73
2022-10-06T04:20:59.945Z,77.92
2022-10-06T04:21:36.702Z,77.91
2022-10-06T04:22:12.560Z,77.82
2022-10-06T04:22:45.221Z,77.45
2022-10-06T04:23:19.881Z,77.91
2022-10-06T04:23:52.740Z,77.83
2022-10-06T04:24:27.572Z,77.69
2022-10-06T04:24:59.690Z,77.59
2022-10-06T04:25:31.926Z,77.73
2022-10-06T04:26:09.476Z,77.69
2022-10-06T04:26:49.037Z,77.55
2022-10-06T04:27:28.407Z,77.87
2022-10-06T04:28:06.333Z,77.97
2022-10-06T04:28:39.318Z,77.99
2022-10-06T04:29:14.664Z,77.71
2022-10-06T04:29:47.878Z,78.05
2022-10-06T04:30:20.201Z,77.67
2022-10-06T04:30:58.980Z,77.55
2022-10-06T04:31:33.162Z,77.69
2022-10-06T04:32:05.353Z,77.71
2022-10-06T04:32:43.158Z,77.55
2022-10-06T04:33:15.325Z,77.98
2022-10-06T04:33:50.629Z,78.03
2022-10-06T04:34:25.434Z,77.73
2022-10-06T04:34:57.537Z,77.54
2022-10-06T04:35:31.126Z,77.89
2022-10-06T04:36:08.118Z,77.91
2022-10-06T04:36:42.094Z,77.72
2022-10-06T04:37:20.561Z,77.78
2022-10-06T04:37:55.012Z,77.55
2022-10-06T04:38:28.380Z,77.60
2022-10-06T04:39:05.958Z,77.73
2022-10-06T04:39:38.996Z,77.78
2022-10-06T04:40:12.131Z,77.64
2022-10-06T04:40:47.002Z,77.70
2022-10-06T04:41:20.342Z,77.59
2022-10-06T04:41:55.533Z,77.67
2022-10-06T04:42:35.400Z,77.94
2022-10-06T04:43:10.706Z,77.59
2022-10-06T04:43:44.757Z,77.86
2022-10-06T04:44:19.422Z,77.55
2022-10-06T04:44:52.112Z,77.38
2022-10-06T04:45:24.190Z,77.39
2022-10-06T04:46:00.519Z,77.53
2022-10-06T04:46:43.277Z,77.71
2022-10-06T04:47:19.394Z,77.82
2022-10-06T04:47:52.687Z,77.67
2022-10-06T04:48:26.152Z,77.51
2022-10-06T04:49:01.249Z,77.75
2022-10-06T04:49:35.662Z,77.63
2022-10-06T04:50:09.357Z,77.26
2022-10-06T04:50:56.450Z,77.27
2022-10-06T04:51:29.811Z,77.20
2022-10-06T04:52:03.850Z,77.58
2022-10-06T04:52:40.931Z,77.32
2022-10-06T04:53:13.148Z,77.65
2022-10-06T04:53:45.358Z,77.16
2022-10-06T04:54:21.413Z,77.68
2022-10-06T04:54:58.569Z,77.14
2022-10-06T04:55:30.876Z,77.34
2022-10-06T04:56:07.685Z,77.10
2022-10-06T04:56:41.578Z,77.25
2022-10-06T04:57:16.607Z,77.52
2022-10-06T04:57:51.477Z,77.38
2022-10-06T04:58:23.649Z,77.31
2022-10-06T04:58:57.176Z,77.26
2022-10-06T04:59:44.764Z,77.36
2022-10-06T05:00:27.424Z,77.12
2022-10-06T05:01:01.864Z,77.13
2022-10-06T05:01:36.209Z,77.40
2022-10-06T05:02:14.580Z,77.45
2022-10-06T05:02:47.657Z,77.44
2022-10-06T05:03:20.273Z,77.24
2022-10-06T05:03:57.191Z,76.96
2022-10-06T05:04:30.067Z,77.11
2022-10-06T05:05:02.313Z,77.55
2022-10-06T05:05:37.139Z,76.97
2022-10-06T05:06:13.800Z,77.33
2022-10-06T05:06:46.105Z,77.41
2022-10-06T05:07:20.790Z,77.46
2022-10-06T05:07:52.908Z,77.14
2022-10-06T05:08:25.053Z,77.05
2022-10-06T05:09:01.546Z,76.95
2022-10-06T05:09:33.705Z,77.31
2022-10-06T05:10:07.450Z,77.27
2022-10-06T05:10:42.526Z,77.34
2022-10-06T05:11:16.608Z,77.05
2022-10-06T05:11:50.398Z,77.22
2022-10-06T05:12:30.331Z,77.00
2022-10-06T05:13:03.906Z,76.96
2022-10-06T05:13:37.258Z,76.65
2022-10-06T05:14:12.731Z,76.77
2022-10-06T05:14:48.459Z,76.88
2022-10-06T05:15:21.177Z,77.00
2022-10-06T05:15:59.541Z,76.92
2022-10-06T05:16:34.384Z,76.56
2022-10-06T05:17:06.947Z,76.79
2022-10-06T05:17:43.017Z,76.29
2022-10-06T05:18:15.106Z,76.68
2022-10-06T05:18:47.575Z,76.56
2022-10-06T05:19:22.256Z,76.38
2022-10-06T05:19:54.402Z,76.56
2022-10-06T05:20:26.743Z,76.44
2022-10-06T05:21:06.585Z,76.55
2022-10-06T05:21:39.165Z,76.40
2022-10-06T05:22:12.781Z,76.64
2022-10-06T05:22:47.754Z,76.87
2022-10-06T05:23:20.122Z,76.33
2022-10-06T05:23:52.518Z,76.21
2022-10-06T05:24:27.936Z,76.50
2022-10-06T05:24:59.998Z,76.43
2022-10-06T05:25:32.177Z,76.45
2022-10-06T05:26:07.842Z,76.18
2022-10-06T05:26:40.066Z,76.37
2022-10-06T05:27:15.828Z,76.21
2022-10-06T05:27:53.492Z,75.90
2022-10-06T05:28:28.025Z,75.91
2022-10-06T05:29:00.774Z,76.07
2022-10-06T05:29:37.402Z,75.77
2022-10-06T05:30:12.257Z,76.26
2022-10-06T05:30:54.495Z,76.09
2022-10-06T05:31:31.768Z,76.22
2022-10-06T05:32:06.055Z,76.04
2022-10-06T05:32:39.355Z,76.16
2022-10-06T05:33:14.454Z,76.35
2022-10-06T05:33:47.033Z,76.22
2022-10-06T05:34:19.946Z,75.72
2022-10-06T05:34:54.908Z,75.69
2022-10-06T05:35:27.782Z,76.08
2022-10-06T05:36:01.672Z,75.65
2022-10-06T05:36:37.597Z,76.05
2022-10-06T05:37:11.352Z,76.07
2022-10-06T05:37:44.410Z,75.96
2022-10-06T05:38:19.059Z,76.05
2022-10-06T05:38:51.202Z,75.70
2022-10-06T05:39:23.305Z,75.70
2022-10-06T05:40:01.862Z,76.19
2022-10-06T05:40:34.059Z,76.01
2022-10-06T05:41:08.628Z,75.91
2022-10-06T05:41:43.536Z,75.79
2022-10-06T05:42:17.258Z,75.69
2022-10-06T05:42:55.366Z,75.30
2022-10-06T05:43:30.048Z,75.62
2022-10-06T05:44:02.217Z,75.46
2022-10-06T05:44:37.393Z,75.57
2022-10-06T05:45:13.489Z,75.70
2022-10-06T05:45:55.086Z,75.34
2022-10-06T05:46:32.668Z,75.49
2022-10-06T05:47:05.106Z,75.21
2022-10-06T05:47:39.798Z,75.56
2022-10-06T05:48:12.025Z,75.52
2022-10-06T05:48:46.827Z,75.39
2022-10-06T05:49:22.484Z,75.34
2022-10-06T05:50:02.204Z,75.59
2022-10-06T05:50:34.528Z,75.04
2022-10-06T05:51:12.337Z,74.86
2022-10-06T05:51:44.707Z,75.21
2022-10-06T05:52:22.021Z,75.12
2022-10-06T05:52:57.401Z,74.88
2022-10-06T05:53:30.794Z,75.09
2022-10-06T05:54:06.211Z,75.15
2022-10-06T05:54:38.574Z,75.26
2022-10-06T05:55:12.174Z,74.93
2022-10-06T05:55:47.241Z,75.20
2022-10-06T05:56:21.649Z,75.05
2022-10-06T05:56:54.048Z,74.98
2022-10-06T05:57:31.058Z,74.49
2022-10-06T05:58:05.773Z,74.76
2022-10-06T05:58:39.601Z,74.92
2022-10-06T05:59:14.342Z,74.74
2022-10-06T05:59:46.429Z,74.95
2022-10-06T06:00:18.622Z,74.71
2022-10-06T06:00:53.990Z,74.62
2022-10-06T06:01:28.378Z,74.42
2022-10-06T06:02:03.914Z,74.85
2022-10-06T06:02:40.421Z,74.61
2022-10-06T06:03:13.312Z,74.51
2022-10-06T06:03:51.222Z,74.26
2022-10-06T06:04:23.342Z,74.11
2022-10-06T06:05:00.775Z,74.16
2022-10-06T06:05:32.908Z,74.25
2022-10-06T06:06:15.014Z,74.12
2022-10-06T06:06:51.057Z,74.24
2022-10-06T06:07:28.020Z,74.42
2022-10-06T06:08:00.077Z,74.25
2022-10-06T06:08:36.592Z,73.96
2022-10-06T06:09:11.034Z,74.15
2022-10-06T06:09:46.260Z,73.92
2022-10-06T06:10:18.429Z,73.61
2022-10-06T06:10:51.176Z,73.96
2022-10-06T06:11:27.832Z,73.97
2022-10-06T06:12:01.504Z,73.67
2022-10-06T06:12:47.876Z,73.92
2022-10-06T06:13:42.891Z,73.48
2022-10-06T06:14:42.852Z,73.93
2022-10-06T06:15:32.609Z,73.91
2022-10-06T06:16:13.286Z,73.98
2022-10-06T06:16:46.632Z,73.85
2022-10-06T06:17:18.873Z,73.82
2022-10-06T06:17:51.103Z,73.64
2022-10-06T06:18:25.981Z,73.69
2022-10-06T06:18:58.572Z,73.92
2022-10-06T06:19:31.054Z,73.58
2022-10-06T06:20:05.921Z,73.72
2022-10-06T06:20:38.167Z,73.36
2022-10-06T06:21:13.292Z,73.48
2022-10-06T06:21:46.521Z,73.29
2022-10-06T06:22:21.367Z,73.38
2022-10-06T06:22:55.215Z,73.23
2022-10-06T06:23:32.778Z,73.45
2022-10-06T06:24:08.330Z,73.26
2022-10-06T06:24:40.431Z,73.26
2022-10-06T06:25:14.018Z,73.09
2022-10-06T06:26:02.265Z,72.98
2022-10-06T06:26:37.166Z,73.23
2022-10-06T06:27:11.990Z,73.12
2022-10-06T06:27:45.589Z,73.01
2022-10-06T06:28:17.988Z,72.69
2022-10-06T06:28:58.931Z,73.12
2022-10-06T06:29:31.061Z,72.58
2022-10-06T06:30:03.480Z,73.02
2022-10-06T06:30:38.841Z,72.61
2022-10-06T06:31:19.069Z,72.53
2022-10-06T06:31:55.643Z,72.58
2022-10-06T06:32:28.061Z,72.72
2022-10-06T06:33:00.586Z,72.54
2022-10-06T06:33:37.799Z,72.59
2022-10-06T06:34:12.176Z,72.81
2022-10-06T06:34:45.134Z,72.30
2022-10-06T06:35:19.966Z,72.24
2022-10-06T06:35:52.155Z,72.36
2022-10-06T06:36:26.434Z,72.74
2022-10-06T06:37:07.467Z,72.61
2022-10-06T06:37:40.778Z,72.08
2022-10-06T06:38:13.340Z,72.28
2022-10-06T06:38:52.038Z,72.20
2022-10-06T06:39:25.678Z,71.86
2022-10-06T06:39:58.682Z,71.89
2022-10-06T06:40:34.335Z,71.84
2022-10-06T06:41:13.747Z,71.53
2022-10-06T06:41:47.239Z,71.76
2022-10-06T06:42:57.182Z,71.84
2022-10-06T06:43:46.811Z,71.25
2022-10-06T06:44:47.470Z,71.54
2022-10-06T06:45:39.535Z,71.64
2022-10-06T06:46:32.773Z,71.83
2022-10-06T06:47:09.678Z,71.93
2022-10-06T06:47:42.107Z,71.61
2022-10-06T06:48:18.322Z,71.70
2022-10-06T06:48:52.419Z,71.96
2022-10-06T06:49:27.078Z,72.06
2022-10-06T06:50:10.458Z,71.78
2022-10-06T06:50:44.173Z,71.81
2022-10-06T06:51:21.331Z,72.02
2022-10-06T06:51:54.599Z,71.87
2022-10-06T06:52:31.741Z,71.78
2022-10-06T06:53:04.801Z,72.10
2022-10-06T06:53:40.075Z,72.07
2022-10-06T06:54:15.671Z,71.52
2022-10-06T06:54:49.685Z,72.15
2022-10-06T06:55:23.432Z,71.72
2022-10-06T06:55:58.165Z,72.12
2022-10-06T06:56:35.382Z,71.94
2022-10-06T06:57:11.874Z,71.81
2022-10-06T06:57:46.584Z,71.60
2022-10-06T06:58:19.434Z,71.60
2022-10-06T06:58:54.155Z,72.00
2022-10-06T06:59:27.340Z,71.63
2022-10-06T07:00:08.113Z,71.36
2022-10-06T07:00:44.395Z,71.36
2022-10-06T07:01:18.637Z,71.42
2022-10-06T07:01:53.417Z,71.40
2022-10-06T07:02:29.705Z,71.47
2022-10-06T07:03:02.499Z,71.29
2022-10-06T07:03:56.773Z,70.96
2022-10-06T07:04:32.940Z,70.90
2022-10-06T07:05:09.930Z,70.93
2022-10-06T07:05:46.564Z,71.28
2022-10-06T07:06:19.666Z,70.84
2022-10-06T07:06:58.545Z,71.13
2022-10-06T07:07:36.144Z,70.73
2022-10-06T07:08:09.884Z,70.75
2022-10-06T07:08:46.839Z,70.56
2022-10-06T07:09:20.929Z,70.79
2022-10-06T07:09:55.970Z,70.80
2022-10-06T07:10:30.511Z,70.91
2022-10-06T07:11:11.541Z,70.40
2022-10-06T07:11:46.862Z,70.44
2022-10-06T07:12:25.307Z,70.52
2022-10-06T07:13:01.644Z,70.47
2022-10-06T07:13:37.051Z,70.75
2022-10-06T07:14:12.770Z,70.52
2022-10-06T07:15:03.192Z,70.67
2022-10-06T07:15:55.864Z,70.52
2022-10-06T07:16:44.286Z,70.95
2022-10-06T07:17:31.469Z,70.78
2022-10-06T07:18:19.056Z,70.78
2022-10-06T07:19:06.339Z,70.76
2022-10-06T07:19:53.482Z,70.78
2022-10-06T07:20:41.168Z,70.84
2022-10-06T07:21:29.180Z,70.64
2022-10-06T07:22:18.997Z,70.40
2022-10-06T07:23:06.199Z,70.84
2022-10-06T07:23:53.479Z,70.49
2022-10-06T07:24:41.566Z,70.99
2022-10-06T07:25:25.749Z,70.63
2022-10-06T07:26:09.220Z,70.42
2022-10-06T07:26:44.273Z,70.71
2022-10-06T07:27:16.408Z,70.43
2022-10-06T07:27:51.237Z,70.06
2022-10-06T07:28:42.477Z,70.47
2022-10-06T07:29:15.494Z,70.43
2022-10-06T07:29:48.031Z,70.42
2022-10-06T07:30:25.801Z,70.17
2022-10-06T07:31:08.626Z,70.09
2022-10-06T07:31:44.066Z,70.15
2022-10-06T07:32:16.193Z,70.50
2022-10-06T07:32:50.348Z,70.44
2022-10-06T07:33:25.382Z,70.20
2022-10-06T07:33:57.790Z,70.06